createdAt,value
2023-04-18T00:01:23.940Z,8.25
2023-04-18T00:03:51.242Z,8.73
2023-04-18T00:06:18.359Z,8.63
2023-04-18T00:08:44.942Z,8.48
2023-04-18T00:11:11.567Z,8.60
2023-04-18T00:13:39.649Z,8.88
2023-04-18T00:16:08.066Z,8.90
2023-04-18T00:18:36.979Z,8.18
2023-04-18T00:21:04.672Z,8.23
2023-04-18T00:23:31.380Z,8.95
2023-04-18T00:25:57.987Z,8.70
2023-04-18T00:28:25.456Z,8.10
2023-04-18T00:30:52.120Z,7.90
2023-04-18T00:33:18.844Z,8.52
2023-04-18T00:35:45.642Z,8.00
2023-04-18T00:38:12.163Z,8.68
2023-04-18T00:40:41.154Z,8.45
2023-04-18T00:43:08.592Z,7.80
2023-04-18T00:45:35.517Z,7.65
2023-04-18T00:48:02.257Z,7.30
2023-04-18T00:50:29.051Z,7.85
2023-04-18T00:52:56.381Z,7.35
2023-04-18T00:55:24.266Z,7.63
2023-04-18T00:57:52.106Z,7.78
2023-04-18T01:00:18.897Z,6.85
2023-04-18T01:02:47.068Z,7.78
2023-04-18T01:05:13.994Z,7.60
2023-04-18T01:07:41.679Z,7.45
2023-04-18T01:10:10.298Z,6.78
2023-04-18T01:12:37.778Z,7.05
2023-04-18T01:15:08.214Z,6.78
2023-04-18T01:17:35.675Z,7.50
2023-04-18T01:20:05.589Z,7.80
2023-04-18T01:22:33.231Z,7.13
2023-04-18T01:25:00.018Z,7.47
2023-04-18T01:27:26.798Z,6.85
2023-04-18T01:29:53.579Z,6.78
2023-04-18T01:32:20.668Z,6.47
2023-04-18T01:34:47.817Z,6.95
2023-04-18T01:37:14.767Z,6.75
2023-04-18T01:39:41.661Z,7.43
2023-04-18T01:42:08.625Z,7.70
2023-04-18T01:44:35.392Z,7.53
2023-04-18T01:47:02.051Z,6.95
2023-04-18T01:49:29.025Z,7.40
2023-04-18T01:51:55.648Z,8.20
2023-04-18T01:54:22.271Z,7.80
2023-04-18T01:56:49.004Z,7.97
2023-04-18T01:59:15.638Z,7.90
2023-04-18T02:01:42.510Z,8.07
2023-04-18T02:04:09.242Z,8.63
2023-04-18T02:06:36.014Z,8.30
2023-04-18T02:09:02.701Z,8.15
2023-04-18T02:11:30.132Z,6.72
2023-04-18T02:13:56.725Z,7.18
2023-04-18T02:16:23.399Z,7.85
2023-04-18T02:18:52.936Z,8.50
2023-04-18T02:21:19.528Z,8.18
2023-04-18T02:23:46.152Z,8.00
2023-04-18T02:26:13.117Z,7.45
2023-04-18T02:28:39.894Z,8.43
2023-04-18T02:31:07.376Z,8.40
2023-04-18T02:33:34.153Z,8.20
2023-04-18T02:36:01.839Z,8.20
2023-04-18T02:38:28.460Z,7.55
2023-04-18T02:40:56.164Z,7.45
2023-04-18T02:43:22.849Z,7.25
2023-04-18T02:45:49.543Z,7.60
2023-04-18T02:48:16.354Z,6.78
2023-04-18T02:50:42.962Z,7.75
2023-04-18T02:53:09.545Z,7.03
2023-04-18T02:55:37.215Z,7.40
2023-04-18T02:58:03.816Z,6.82
2023-04-18T03:00:30.553Z,7.72
2023-04-18T03:02:57.627Z,7.15
2023-04-18T03:05:24.755Z,7.00
2023-04-18T03:07:51.472Z,6.95
2023-04-18T03:10:18.427Z,7.05
2023-04-18T03:12:45.007Z,6.93
2023-04-18T03:15:11.832Z,5.65
2023-04-18T03:17:39.443Z,6.18
2023-04-18T03:20:08.149Z,6.75
2023-04-18T03:22:35.159Z,6.10
2023-04-18T03:25:02.155Z,6.70
2023-04-18T03:27:28.790Z,6.55
2023-04-18T03:29:55.510Z,7.00
2023-04-18T03:32:22.433Z,6.20
2023-04-18T03:34:49.458Z,6.50
2023-04-18T03:37:16.039Z,6.50
2023-04-18T03:39:42.833Z,6.00
2023-04-18T03:42:09.438Z,6.88
2023-04-18T03:44:36.081Z,5.90
2023-04-18T03:47:03.031Z,5.93
2023-04-18T03:49:29.626Z,5.60
2023-04-18T03:51:56.226Z,6.00
2023-04-18T03:54:22.978Z,6.55
2023-04-18T03:56:49.643Z,5.97
2023-04-18T03:59:16.379Z,5.82
2023-04-18T04:01:43.216Z,5.53
2023-04-18T04:04:12.089Z,5.32
2023-04-18T04:06:39.107Z,6.07
2023-04-18T04:09:06.580Z,5.45
2023-04-18T04:11:36.242Z,5.57
2023-04-18T04:14:02.939Z,5.25
2023-04-18T04:16:29.973Z,4.57
2023-04-18T04:18:56.657Z,5.50
2023-04-18T04:21:23.295Z,6.10
2023-04-18T04:23:50.065Z,6.57
2023-04-18T04:26:16.751Z,6.00
2023-04-18T04:28:46.370Z,5.75
2023-04-18T04:31:13.222Z,5.77
2023-04-18T04:33:41.021Z,5.93
2023-04-18T04:36:08.988Z,5.60
2023-04-18T04:38:38.564Z,5.10
2023-04-18T04:41:08.048Z,5.25
2023-04-18T04:43:34.925Z,5.10
2023-04-18T04:46:03.884Z,5.88
2023-04-18T04:48:30.595Z,5.10
2023-04-18T04:50:59.152Z,5.78
2023-04-18T04:53:28.866Z,6.13
2023-04-18T04:55:55.698Z,5.67
2023-04-18T04:58:22.327Z,5.30
2023-04-18T05:00:50.914Z,5.38
2023-04-18T05:03:18.057Z,5.75
2023-04-18T05:05:45.301Z,5.97
2023-04-18T05:08:12.179Z,5.88
2023-04-18T05:10:38.867Z,6.30
2023-04-18T05:13:05.462Z,6.25
2023-04-18T05:15:32.557Z,6.82
2023-04-18T05:17:59.464Z,6.18
2023-04-18T05:20:26.134Z,6.70
2023-04-18T05:22:52.939Z,6.35
2023-04-18T05:25:19.872Z,6.82
2023-04-18T05:27:47.185Z,6.00
2023-04-18T05:30:14.284Z,6.95
2023-04-18T05:32:41.026Z,6.88
2023-04-18T05:35:08.373Z,6.60
2023-04-18T05:37:35.508Z,7.10
2023-04-18T05:40:02.819Z,7.05
2023-04-18T05:42:29.405Z,7.03
2023-04-18T05:44:56.294Z,7.13
2023-04-18T05:47:24.202Z,7.32
2023-04-18T05:49:51.071Z,7.55
2023-04-18T05:52:17.962Z,7.25
2023-04-18T05:54:44.582Z,7.63
2023-04-18T05:57:11.166Z,7.28
2023-04-18T05:59:38.035Z,8.18
2023-04-18T06:02:04.713Z,6.78
2023-04-18T06:04:31.475Z,7.80
2023-04-18T06:06:58.861Z,8.20
2023-04-18T06:09:25.423Z,8.40
2023-04-18T06:11:52.069Z,7.63
2023-04-18T06:14:18.776Z,7.25
2023-04-18T06:16:45.898Z,7.57
2023-04-18T06:19:12.504Z,7.45
2023-04-18T06:21:42.130Z,8.25
2023-04-18T06:24:09.350Z,9.27
2023-04-18T06:26:36.010Z,7.50
2023-04-18T06:29:03.319Z,7.72
2023-04-18T06:31:30.051Z,7.40
2023-04-18T06:33:56.717Z,7.18
2023-04-18T06:36:23.737Z,6.85
2023-04-18T06:38:50.371Z,8.00
2023-04-18T06:41:17.076Z,7.45
2023-04-18T06:43:59.738Z,8.38
2023-04-18T06:46:30.555Z,6.78
2023-04-18T06:48:57.520Z,8.25
2023-04-18T06:51:24.193Z,7.43
2023-04-18T06:53:52.968Z,7.60
2023-04-18T06:56:20.722Z,7.15
2023-04-18T06:58:48.036Z,6.55
2023-04-18T07:01:14.744Z,7.20
2023-04-18T07:03:42.269Z,7.13
2023-04-18T07:06:10.552Z,5.95
2023-04-18T07:08:37.820Z,7.93
2023-04-18T07:11:05.664Z,6.72
2023-04-18T07:13:32.251Z,6.78
2023-04-18T07:15:58.924Z,6.53
2023-04-18T07:18:36.552Z,6.75
2023-04-18T07:21:07.534Z,6.50
2023-04-18T07:23:35.060Z,6.63
2023-04-18T07:26:02.847Z,6.43
2023-04-18T07:28:31.279Z,6.95
2023-04-18T07:30:58.858Z,6.43
2023-04-18T07:33:25.803Z,6.72
2023-04-18T07:35:53.217Z,6.30
2023-04-18T07:38:20.322Z,6.50
2023-04-18T07:40:47.088Z,6.72
2023-04-18T07:43:13.758Z,6.72
2023-04-18T07:45:43.334Z,6.93
2023-04-18T07:48:11.336Z,6.80
2023-04-18T07:50:38.069Z,7.43
2023-04-18T07:53:04.889Z,6.70
2023-04-18T07:55:31.842Z,7.05
2023-04-18T07:57:58.546Z,7.28
2023-04-18T08:00:25.392Z,6.68
2023-04-18T08:02:52.265Z,6.70
2023-04-18T08:05:20.065Z,6.38
2023-04-18T08:07:46.916Z,6.65
2023-04-18T08:10:13.584Z,6.65
2023-04-18T08:12:40.702Z,6.70
2023-04-18T08:15:08.527Z,6.65
2023-04-18T08:17:35.327Z,7.00
2023-04-18T08:20:05.130Z,6.70
2023-04-18T08:22:33.590Z,5.80
2023-04-18T08:25:05.420Z,6.28
2023-04-18T08:27:32.928Z,6.47
2023-04-18T08:30:00.822Z,6.55
2023-04-18T08:32:27.731Z,7.00
2023-04-18T08:34:54.410Z,6.45
2023-04-18T08:37:21.342Z,6.40
2023-04-18T08:39:48.070Z,6.45
2023-04-18T08:42:21.563Z,6.32
2023-04-18T08:44:49.242Z,5.90
2023-04-18T08:47:16.439Z,6.20
2023-04-18T08:49:46.689Z,6.78
2023-04-18T08:52:17.169Z,6.35
2023-04-18T08:54:46.703Z,5.60
2023-04-18T08:57:18.422Z,6.05
2023-04-18T08:59:47.678Z,6.13
2023-04-18T09:02:16.266Z,5.57
2023-04-18T09:04:45.386Z,5.00
2023-04-18T09:07:14.571Z,6.35
2023-04-18T09:09:52.674Z,5.40
2023-04-18T09:12:25.376Z,5.38
2023-04-18T09:14:57.997Z,4.95
2023-04-18T09:17:36.926Z,5.32
2023-04-18T09:20:05.610Z,5.53
2023-04-18T09:22:52.793Z,5.32
2023-04-18T09:25:29.520Z,5.82
2023-04-18T09:28:02.026Z,5.82
2023-04-18T09:30:34.908Z,6.10
2023-04-18T09:33:06.261Z,5.78
2023-04-18T09:35:33.559Z,6.22
2023-04-18T09:38:00.295Z,6.55
2023-04-18T09:40:27.369Z,6.30
2023-04-18T09:42:57.037Z,5.88
2023-04-18T09:45:25.289Z,6.07
2023-04-18T09:47:53.761Z,5.43
2023-04-18T09:50:20.921Z,5.72
2023-04-18T09:52:48.623Z,5.43
2023-04-18T09:55:18.482Z,5.53
2023-04-18T09:57:47.964Z,6.22
2023-04-18T10:00:24.886Z,6.22
2023-04-18T10:03:08.301Z,6.03
2023-04-18T10:05:38.917Z,6.03
2023-04-18T10:08:06.842Z,6.15
2023-04-18T10:10:33.591Z,5.88
2023-04-18T10:13:03.174Z,5.47
2023-04-18T10:15:31.277Z,6.32
2023-04-18T10:18:05.641Z,5.32
2023-04-18T10:20:35.181Z,6.85
2023-04-18T10:23:30.911Z,6.35
2023-04-18T10:25:58.283Z,5.50
2023-04-18T10:28:26.523Z,6.85
2023-04-18T10:30:54.677Z,6.00
2023-04-18T10:33:30.445Z,6.35
2023-04-18T10:36:12.310Z,6.35
2023-04-18T10:38:50.956Z,6.82
2023-04-18T10:41:29.191Z,5.80
2023-04-18T10:44:08.724Z,6.50
2023-04-18T10:46:36.917Z,6.20
2023-04-18T10:49:31.031Z,6.07
2023-04-18T10:52:00.999Z,6.10
2023-04-18T10:54:59.248Z,6.32
2023-04-18T10:57:37.870Z,6.25
2023-04-18T11:00:06.219Z,6.57
2023-04-18T11:02:33.516Z,6.15
2023-04-18T11:05:04.829Z,7.13
2023-04-18T11:07:37.671Z,5.75
2023-04-18T11:10:06.182Z,5.63
2023-04-18T11:12:36.436Z,5.60
2023-04-18T11:15:09.567Z,6.65
2023-04-18T11:17:38.407Z,5.93
2023-04-18T11:20:13.042Z,6.22
2023-04-18T11:22:51.199Z,4.85
2023-04-18T11:25:19.882Z,6.60
2023-04-18T11:27:48.769Z,5.93
2023-04-18T11:30:16.214Z,5.78
2023-04-18T11:32:43.213Z,6.55
2023-04-18T11:35:11.652Z,5.45
2023-04-18T11:37:39.655Z,6.40
2023-04-18T11:40:08.980Z,6.05
2023-04-18T11:42:38.888Z,6.05
2023-04-18T11:45:16.161Z,6.10
2023-04-18T11:47:43.441Z,5.90
2023-04-18T11:50:12.731Z,6.72
2023-04-18T11:52:42.241Z,6.50
2023-04-18T11:55:14.409Z,6.97
2023-04-18T11:57:41.916Z,6.32
2023-04-18T12:00:10.541Z,6.40
2023-04-18T12:02:43.287Z,6.43
2023-04-18T12:05:12.151Z,5.88
2023-04-18T12:07:45.219Z,6.38
2023-04-18T12:10:21.150Z,6.45
2023-04-18T12:12:49.368Z,5.55
2023-04-18T12:15:17.629Z,5.07
2023-04-18T12:17:54.509Z,5.72
2023-04-18T12:20:24.854Z,5.22
2023-04-18T12:22:53.109Z,5.43
2023-04-18T12:25:27.399Z,5.53
2023-04-18T12:27:59.365Z,5.55
2023-04-18T12:30:29.356Z,5.32
2023-04-18T12:32:58.109Z,5.57
2023-04-18T12:35:25.662Z,5.78
2023-04-18T12:37:55.274Z,5.18
2023-04-18T12:40:23.257Z,4.80
2023-04-18T12:42:51.533Z,5.15
2023-04-18T12:45:19.594Z,5.10
2023-04-18T12:47:48.330Z,4.45
2023-04-18T12:50:21.521Z,4.95
2023-04-18T12:52:48.826Z,4.85
2023-04-18T12:55:15.805Z,4.63
2023-04-18T12:57:44.259Z,4.50
2023-04-18T13:00:13.051Z,4.65
2023-04-18T13:02:41.875Z,4.40
2023-04-18T13:05:10.736Z,3.97
2023-04-18T13:07:40.492Z,3.55
2023-04-18T13:10:09.014Z,4.18
2023-04-18T13:12:36.280Z,4.20
2023-04-18T13:15:04.286Z,3.85
2023-04-18T13:17:31.134Z,4.00
2023-04-18T13:19:58.247Z,4.07
2023-04-18T13:22:24.973Z,4.25
2023-04-18T13:24:51.661Z,3.95
2023-04-18T13:27:18.728Z,3.60
2023-04-18T13:29:47.707Z,4.20
2023-04-18T13:32:14.404Z,4.20
2023-04-18T13:34:46.530Z,4.38
2023-04-18T13:37:14.443Z,4.10
2023-04-18T13:39:41.386Z,4.57
2023-04-18T13:42:09.018Z,4.45
2023-04-18T13:44:37.316Z,4.25
2023-04-18T13:47:05.542Z,4.35
2023-04-18T13:49:33.878Z,4.55
2023-04-18T13:52:01.049Z,4.40
2023-04-18T13:54:29.796Z,4.70
2023-04-18T13:57:04.644Z,4.30
2023-04-18T13:59:32.554Z,4.63
2023-04-18T14:01:59.748Z,4.38
2023-04-18T14:04:27.653Z,4.97
2023-04-18T14:06:54.958Z,4.68
2023-04-18T14:09:21.755Z,4.20
2023-04-18T14:11:48.856Z,4.78
2023-04-18T14:14:15.588Z,4.93
2023-04-18T14:16:42.249Z,4.85
2023-04-18T14:19:09.020Z,5.07
2023-04-18T14:21:36.057Z,4.50
2023-04-18T14:24:03.489Z,4.57
2023-04-18T14:26:31.158Z,5.53
2023-04-18T14:28:58.193Z,5.38
2023-04-18T14:31:24.925Z,5.03
2023-04-18T14:33:52.270Z,5.00
2023-04-18T14:36:19.434Z,5.70
2023-04-18T14:38:49.583Z,5.10
2023-04-18T14:41:16.936Z,6.35
2023-04-18T14:43:43.862Z,5.75
2023-04-18T14:46:16.579Z,6.35
2023-04-18T14:48:47.487Z,6.53
2023-04-18T14:51:17.257Z,5.45
2023-04-18T14:53:44.967Z,6.27
2023-04-18T14:56:11.979Z,6.22
2023-04-18T14:58:38.618Z,6.18
2023-04-18T15:01:05.782Z,5.75
2023-04-18T15:03:33.534Z,5.78
2023-04-18T15:06:00.464Z,6.68
2023-04-18T15:08:27.297Z,6.03
2023-04-18T15:10:54.105Z,6.15
2023-04-18T15:13:20.869Z,5.55
2023-04-18T15:15:55.278Z,5.60
2023-04-18T15:18:22.082Z,5.35
2023-04-18T15:20:48.778Z,5.65
2023-04-18T15:23:16.043Z,5.80
2023-04-18T15:25:45.206Z,6.63
2023-04-18T15:28:14.677Z,5.72
2023-04-18T15:30:41.520Z,5.80
2023-04-18T15:33:08.571Z,6.63
2023-04-18T15:35:35.780Z,5.57
2023-04-18T15:38:02.584Z,6.28
2023-04-18T15:40:29.288Z,6.00
2023-04-18T15:42:57.791Z,6.18
2023-04-18T15:45:24.559Z,6.10
2023-04-18T15:47:51.717Z,6.25
2023-04-18T15:50:18.619Z,5.55
2023-04-18T15:52:46.163Z,5.70
2023-04-18T15:55:13.540Z,6.07
2023-04-18T15:57:41.678Z,5.75
2023-04-18T16:00:21.068Z,6.22
2023-04-18T16:02:48.095Z,6.07
2023-04-18T16:05:15.366Z,6.15
2023-04-18T16:07:43.282Z,5.85
2023-04-18T16:10:11.290Z,5.85
2023-04-18T16:12:39.081Z,6.45
2023-04-18T16:15:07.330Z,5.75
2023-04-18T16:17:34.531Z,6.20
2023-04-18T16:20:01.291Z,6.35
2023-04-18T16:22:28.159Z,6.43
2023-04-18T16:24:54.925Z,5.90
2023-04-18T16:27:21.989Z,6.70
2023-04-18T16:29:48.687Z,6.18
2023-04-18T16:32:15.655Z,5.90
2023-04-18T16:34:42.249Z,5.88
2023-04-18T16:37:09.029Z,5.78
2023-04-18T16:39:35.783Z,5.88
2023-04-18T16:42:03.807Z,5.65
2023-04-18T16:44:30.824Z,5.78
2023-04-18T16:46:57.615Z,6.18
2023-04-18T16:49:24.344Z,5.93
2023-04-18T16:51:51.348Z,7.13
2023-04-18T16:54:17.986Z,6.55
2023-04-18T16:56:44.865Z,6.05
2023-04-18T16:59:11.820Z,5.40
2023-04-18T17:01:38.796Z,6.40
2023-04-18T17:04:05.627Z,6.15
2023-04-18T17:06:32.946Z,6.85
2023-04-18T17:09:00.155Z,6.70
2023-04-18T17:11:26.840Z,6.78
2023-04-18T17:13:53.862Z,6.53
2023-04-18T17:16:20.689Z,6.95
2023-04-18T17:18:47.364Z,6.40
2023-04-18T17:21:14.330Z,6.47
2023-04-18T17:23:42.509Z,6.50
2023-04-18T17:26:10.009Z,6.32
2023-04-18T17:28:37.022Z,5.88
2023-04-18T17:31:03.955Z,6.90
2023-04-18T17:33:31.161Z,6.82
2023-04-18T17:35:58.361Z,6.07
2023-04-18T17:38:25.233Z,5.78
2023-04-18T17:40:59.660Z,7.05
2023-04-18T17:43:26.872Z,5.95
2023-04-18T17:45:53.742Z,6.18
2023-04-18T17:48:20.539Z,5.85
2023-04-18T17:50:47.338Z,5.50
2023-04-18T17:53:14.098Z,5.38
2023-04-18T17:55:41.227Z,5.57
2023-04-18T17:58:08.186Z,6.00
2023-04-18T18:00:35.142Z,5.43
2023-04-18T18:03:03.012Z,5.15
2023-04-18T18:05:30.442Z,5.85
2023-04-18T18:07:57.677Z,5.38
2023-04-18T18:10:25.083Z,5.45
2023-04-18T18:12:51.961Z,5.20
2023-04-18T18:15:19.496Z,5.50
2023-04-18T18:17:49.198Z,5.03
2023-04-18T18:20:16.267Z,5.73
2023-04-18T18:22:43.605Z,5.40
2023-04-18T18:25:10.860Z,5.70
2023-04-18T18:27:37.675Z,5.32
2023-04-18T18:30:04.886Z,5.93
2023-04-18T18:32:31.623Z,5.57
2023-04-18T18:34:58.409Z,5.82
2023-04-18T18:37:26.118Z,5.70
2023-04-18T18:39:59.981Z,5.55
2023-04-18T18:42:27.271Z,5.55
2023-04-18T18:44:54.711Z,5.88
2023-04-18T18:47:21.685Z,6.00
2023-04-18T18:49:48.838Z,6.10
2023-04-18T18:52:16.035Z,6.25
2023-04-18T18:54:42.803Z,6.05
2023-04-18T18:57:09.647Z,6.60
2023-04-18T18:59:36.275Z,6.22
2023-04-18T19:02:03.294Z,5.85
2023-04-18T19:04:30.443Z,6.63
2023-04-18T19:06:57.190Z,6.82
2023-04-18T19:09:24.227Z,5.72
2023-04-18T19:11:51.521Z,6.78
2023-04-18T19:14:18.132Z,6.55
2023-04-18T19:16:44.948Z,6.55
2023-04-18T19:19:12.052Z,6.50
2023-04-18T19:21:39.829Z,7.15
2023-04-18T19:24:07.554Z,6.18
2023-04-18T19:26:34.254Z,7.32
2023-04-18T19:29:00.999Z,6.57
2023-04-18T19:31:28.147Z,6.70
2023-04-18T19:33:55.066Z,6.90
2023-04-18T19:36:22.594Z,6.75
2023-04-18T19:38:49.355Z,7.28
2023-04-18T19:41:16.330Z,7.57
2023-04-18T19:43:43.273Z,7.25
2023-04-18T19:46:10.485Z,7.05
2023-04-18T19:48:38.111Z,7.13
2023-04-18T19:51:04.846Z,7.35
2023-04-18T19:53:31.825Z,7.70
2023-04-18T19:55:58.544Z,7.15
2023-04-18T19:58:35.970Z,7.60
2023-04-18T20:01:05.830Z,6.75
2023-04-18T20:03:35.375Z,7.35
2023-04-18T20:06:02.322Z,7.30
2023-04-18T20:08:29.479Z,7.85
2023-04-18T20:10:56.503Z,7.32
2023-04-18T20:13:23.751Z,7.07
2023-04-18T20:15:50.492Z,7.07
2023-04-18T20:18:17.276Z,7.90
2023-04-18T20:20:44.066Z,6.70
2023-04-18T20:23:11.371Z,7.15
2023-04-18T20:25:38.053Z,7.13
2023-04-18T20:28:05.007Z,6.70
2023-04-18T20:30:31.708Z,6.32
2023-04-18T20:32:58.484Z,6.35
2023-04-18T20:35:28.005Z,6.15
2023-04-18T20:37:55.087Z,6.25
2023-04-18T20:40:21.954Z,6.50
2023-04-18T20:42:48.662Z,5.93
2023-04-18T20:45:15.398Z,6.80
2023-04-18T20:47:42.395Z,5.82
2023-04-18T20:50:10.342Z,5.80
2023-04-18T20:52:37.705Z,5.35
2023-04-18T20:55:04.732Z,5.43
2023-04-18T20:57:31.422Z,5.60
2023-04-18T20:59:58.725Z,5.55
2023-04-18T21:02:26.466Z,5.28
2023-04-18T21:04:54.018Z,5.40
2023-04-18T21:07:21.063Z,5.03
2023-04-18T21:09:47.682Z,5.13
2023-04-18T21:12:14.326Z,5.30
2023-04-18T21:14:41.188Z,6.70
2023-04-18T21:17:09.660Z,5.07
2023-04-18T21:19:36.999Z,5.20
2023-04-18T21:22:04.361Z,5.40
2023-04-18T21:24:31.692Z,4.80
2023-04-18T21:26:58.777Z,4.82
2023-04-18T21:29:26.530Z,4.75
2023-04-18T21:31:53.720Z,4.93
2023-04-18T21:34:20.752Z,5.07
2023-04-18T21:36:47.658Z,5.30
2023-04-18T21:39:14.379Z,5.30
2023-04-18T21:41:42.021Z,5.50
2023-04-18T21:44:08.640Z,5.88
2023-04-18T21:46:35.245Z,5.40
2023-04-18T21:49:02.028Z,5.30
2023-04-18T21:51:28.762Z,5.35
2023-04-18T21:53:55.674Z,5.70
2023-04-18T21:56:22.428Z,5.53
2023-04-18T21:58:49.316Z,5.57
2023-04-18T22:01:16.047Z,5.45
2023-04-18T22:03:43.227Z,5.68
2023-04-18T22:06:10.451Z,5.80
2023-04-18T22:08:37.137Z,5.40
2023-04-18T22:13:39.184Z,5.75
2023-04-18T22:16:09.510Z,5.65
2023-04-18T22:18:37.868Z,5.50
2023-04-18T22:21:04.945Z,6.40
2023-04-18T22:23:31.696Z,6.13
2023-04-18T22:25:58.543Z,5.80
2023-04-18T22:28:27.944Z,5.57
2023-04-18T22:30:54.654Z,6.97
2023-04-18T22:33:21.287Z,5.60
2023-04-18T22:35:48.745Z,6.10
2023-04-18T22:38:15.852Z,5.95
2023-04-18T22:40:42.475Z,7.18
2023-04-18T22:43:09.172Z,6.68
2023-04-18T22:45:35.860Z,6.43
2023-04-18T22:48:02.498Z,6.60
2023-04-18T22:50:30.344Z,6.90
2023-04-18T22:52:57.453Z,6.90
2023-04-18T22:55:24.193Z,6.53
2023-04-18T22:57:51.066Z,7.28
2023-04-18T23:00:17.795Z,7.35
2023-04-18T23:02:44.565Z,6.30
2023-04-18T23:05:11.882Z,7.72
2023-04-18T23:07:38.567Z,6.15
2023-04-18T23:10:08.628Z,7.07
2023-04-18T23:12:35.458Z,6.32
2023-04-18T23:15:02.067Z,6.85
2023-04-18T23:17:28.728Z,5.78
2023-04-18T23:19:55.641Z,6.18
2023-04-18T23:22:24.139Z,6.40
2023-04-18T23:24:50.910Z,5.72
2023-04-18T23:27:19.628Z,5.97
2023-04-18T23:29:49.240Z,6.20
2023-04-18T23:32:16.389Z,6.28
2023-04-18T23:34:43.142Z,5.80
2023-04-18T23:37:09.771Z,6.35
2023-04-18T23:39:36.398Z,5.78
2023-04-18T23:42:03.249Z,5.93
2023-04-18T23:44:29.862Z,5.97
2023-04-18T23:46:56.483Z,5.75
2023-04-18T23:49:23.259Z,6.70
2023-04-18T23:51:49.910Z,6.97
2023-04-18T23:54:16.748Z,6.40
2023-04-18T23:56:43.653Z,6.68
2023-04-18T23:59:10.257Z,6.20
